Time;durP1;ratioP1;P1;durP2;ratioP2;P2;SDS_P1;SDS_P2;PMS_P1;PMS_P2;Temp;Humidity;BMP_temperature;BMP_pressure;BME280_temperature;BME280_humidity;BME280_pressure;Samples;Min_cycle;Max_cycle;Signal;HPM_P1;HPM_P2
2024/04/11 00:02:08;;;;;;;7.15;1.70;;;16.30;61.20;;;;;;5296624;26;110494;-52
2024/04/11 00:04:34;;;;;;;3.65;1.70;;;16.20;61.20;;;;;;5296454;26;110629;-52
2024/04/11 00:07:00;;;;;;;3.47;1.60;;;16.30;61.10;;;;;;5295349;26;111281;-52
2024/04/11 00:09:25;;;;;;;1.85;1.30;;;16.30;61.20;;;;;;5295360;26;111057;-52
2024/04/11 00:11:51;;;;;;;3.78;1.70;;;16.20;60.90;;;;;;5296677;26;110598;-52
2024/04/11 00:14:17;;;;;;;2.45;1.20;;;16.20;60.90;;;;;;5296220;26;113611;-52
2024/04/11 00:16:42;;;;;;;6.07;1.60;;;16.20;61.50;;;;;;5295380;26;111133;-52
2024/04/11 00:19:08;;;;;;;3.08;1.40;;;16.20;61.50;;;;;;5295203;26;110742;-52
2024/04/11 00:21:33;;;;;;;3.90;1.98;;;16.20;61.40;;;;;;5296739;26;111275;-52
2024/04/11 00:23:59;;;;;;;3.60;1.48;;;16.00;61.50;;;;;;5296488;26;111190;-52
2024/04/11 00:26:25;;;;;;;3.72;1.70;;;16.10;62.00;;;;;;5294906;26;111659;-52
2024/04/11 00:28:50;;;;;;;1.70;1.50;;;16.00;63.00;;;;;;5294921;26;110773;-52
2024/04/11 00:31:16;;;;;;;3.97;1.70;;;15.90;63.20;;;;;;5295982;26;110802;-52
2024/04/11 00:33:54;;;;;;;4.15;1.90;;;15.80;64.40;;;;;;5288772;26;110535;-52
2024/04/11 00:36:23;;;;;;;4.45;1.65;;;15.70;65.20;;;;;;5281602;26;112352;-52
2024/04/11 00:38:51;;;;;;;4.22;1.52;;;15.60;65.30;;;;;;5293152;26;111966;-52
2024/04/11 00:41:17;;;;;;;3.00;1.58;;;15.60;65.40;;;;;;5296171;26;110481;-52
2024/04/11 00:43:43;;;;;;;2.60;1.90;;;15.60;65.60;;;;;;5296204;26;112996;-52
2024/04/11 00:46:09;;;;;;;2.80;1.67;;;15.60;65.50;;;;;;5295230;26;111729;-52
2024/04/11 00:48:36;;;;;;;3.60;1.55;;;15.60;66.00;;;;;;5294674;26;111820;-52
2024/04/11 00:51:03;;;;;;;2.58;1.73;;;15.60;65.90;;;;;;5296087;26;110386;-52
2024/04/11 00:53:30;;;;;;;3.28;1.60;;;15.50;65.70;;;;;;5295874;26;110550;-52
2024/04/11 00:55:56;;;;;;;5.45;1.80;;;15.50;65.80;;;;;;5294032;26;111472;-52
2024/04/11 00:58:24;;;;;;;5.57;1.67;;;15.50;65.90;;;;;;5294579;26;111972;-52
2024/04/11 01:00:50;;;;;;;4.43;1.92;;;15.50;65.60;;;;;;5296287;26;110980;-52
2024/04/11 01:03:16;;;;;;;4.28;2.22;;;15.40;65.60;;;;;;5295824;26;110652;-51
2024/04/11 01:05:42;;;;;;;3.95;2.03;;;15.40;65.30;;;;;;5294675;26;111563;-52
2024/04/11 01:08:07;;;;;;;8.52;2.33;;;15.30;65.70;;;;;;5294681;26;110870;-52
2024/04/11 01:10:34;;;;;;;5.60;1.85;;;15.30;66.00;;;;;;5296075;26;110691;-52
2024/04/11 01:13:02;;;;;;;3.03;1.88;;;15.30;66.80;;;;;;5295825;26;110533;-52
2024/04/11 01:15:28;;;;;;;3.72;2.15;;;15.10;67.30;;;;;;5294689;26;111035;-53
2024/04/11 01:17:53;;;;;;;4.20;1.98;;;15.10;67.00;;;;;;5294127;26;111523;-52
2024/04/11 01:20:21;;;;;;;4.53;1.95;;;15.10;67.60;;;;;;5295612;26;110741;-52
2024/04/11 01:22:48;;;;;;;5.22;2.10;;;15.00;68.10;;;;;;5295413;26;110555;-52
2024/04/11 01:25:15;;;;;;;4.47;2.10;;;14.90;68.50;;;;;;5294555;26;112345;-52
2024/04/11 01:27:40;;;;;;;6.22;1.98;;;14.90;68.70;;;;;;5294117;26;110863;-52
2024/04/11 01:30:08;;;;;;;4.25;2.08;;;14.90;68.60;;;;;;5295542;26;110397;-52
2024/04/11 01:32:34;;;;;;;5.18;2.08;;;14.90;68.70;;;;;;5295474;26;110932;-52
2024/04/11 01:34:59;;;;;;;3.28;1.95;;;14.80;68.80;;;;;;5269731;26;111058;-52
2024/04/11 01:37:28;;;;;;;3.80;2.03;;;14.80;68.80;;;;;;5281579;26;111688;-52
2024/04/11 01:39:55;;;;;;;3.10;1.70;;;14.90;68.20;;;;;;5295379;26;110675;-52
2024/04/11 01:42:21;;;;;;;6.10;1.80;;;14.90;67.90;;;;;;5294808;26;110682;-52
2024/04/11 01:44:47;;;;;;;2.95;1.90;;;14.90;68.20;;;;;;5294061;26;111103;-52
2024/04/11 01:47:16;;;;;;;4.65;1.80;;;14.80;68.20;;;;;;5293968;26;111478;-52
2024/04/11 01:49:43;;;;;;;4.60;1.85;;;14.80;68.00;;;;;;5295202;26;110400;-52
2024/04/11 01:52:12;;;;;;;2.67;1.85;;;14.80;68.20;;;;;;5294872;26;110626;-52
2024/04/11 01:54:41;;;;;;;5.90;1.80;;;14.80;67.80;;;;;;5293959;26;112471;-52
2024/04/11 01:57:08;;;;;;;4.53;1.90;;;14.70;68.00;;;;;;5293702;26;113284;-52
2024/04/11 01:59:34;;;;;;;5.28;1.70;;;14.70;68.00;;;;;;5295048;26;110382;-52
2024/04/11 02:02:01;;;;;;;4.30;2.15;;;14.70;67.80;;;;;;5295449;26;110523;-52
2024/04/11 02:04:31;;;;;;;3.35;1.48;;;14.80;67.70;;;;;;5285216;26;111115;-52
2024/04/11 02:06:57;;;;;;;2.88;1.80;;;14.80;67.70;;;;;;5287265;26;110768;-52
2024/04/11 02:09:23;;;;;;;2.50;1.35;;;14.80;67.40;;;;;;5268284;26;110371;-52
2024/04/11 02:11:53;;;;;;;2.35;1.65;;;14.70;67.20;;;;;;5272804;26;110652;-52
2024/04/11 02:14:21;;;;;;;5.60;1.80;;;14.80;66.50;;;;;;5271137;26;111178;-53
2024/04/11 02:16:49;;;;;;;5.40;1.80;;;14.80;66.90;;;;;;5266414;26;110802;-52
2024/04/11 02:19:16;;;;;;;2.95;1.48;;;14.70;66.80;;;;;;5263088;26;110658;-51
2024/04/11 02:21:42;;;;;;;2.95;1.40;;;14.70;66.60;;;;;;5269724;26;110509;-53
2024/04/11 02:24:16;;;;;;;3.90;1.70;;;14.70;66.70;;;;;;5278852;26;111200;-52
2024/04/11 02:26:48;;;;;;;2.38;1.50;;;14.70;66.70;;;;;;5267130;26;110560;-52
2024/04/11 02:29:16;;;;;;;3.65;1.58;;;14.70;66.80;;;;;;5262924;26;110502;-52
2024/04/11 02:31:42;;;;;;;2.53;1.40;;;14.60;66.90;;;;;;5262615;26;110684;-51
2024/04/11 02:34:08;;;;;;;2.85;1.40;;;14.70;66.90;;;;;;5261539;26;112396;-52
2024/04/11 02:36:34;;;;;;;2.30;1.33;;;14.70;66.70;;;;;;5261738;26;110485;-50
2024/04/11 02:39:02;;;;;;;1.50;1.40;;;14.60;66.70;;;;;;5262754;26;110713;-50
2024/04/11 02:41:28;;;;;;;3.10;1.40;;;14.60;66.80;;;;;;5263020;26;110950;-50
2024/04/11 02:43:55;;;;;;;6.15;1.63;;;14.50;67.10;;;;;;5261389;26;111690;-50
2024/04/11 02:46:21;;;;;;;3.47;1.45;;;14.50;67.10;;;;;;5261599;26;110566;-50
2024/04/11 02:48:50;;;;;;;4.15;1.67;;;14.60;67.10;;;;;;5262731;26;110721;-50
2024/04/11 02:51:17;;;;;;;3.33;1.33;;;14.60;66.80;;;;;;5262554;26;112754;-50
2024/04/11 02:53:43;;;;;;;4.07;1.50;;;14.50;66.80;;;;;;5261592;26;112441;-50
2024/04/11 02:56:10;;;;;;;2.67;1.73;;;14.50;67.00;;;;;;5261190;26;110843;-50
2024/04/11 02:58:37;;;;;;;2.90;1.30;;;14.60;66.90;;;;;;5262533;26;110468;-50
2024/04/11 03:01:04;;;;;;;3.47;1.30;;;14.50;67.00;;;;;;5262824;26;110653;-50
2024/04/11 03:03:34;;;;;;;4.38;1.40;;;14.50;66.90;;;;;;5261505;26;111146;-50
2024/04/11 03:06:21;;;;;;;4.70;1.20;;;14.50;67.10;;;;;;5261456;26;110922;-49
2024/04/11 03:08:50;;;;;;;2.38;1.50;;;14.40;67.00;;;;;;5262666;26;110579;-50
2024/04/11 03:11:16;;;;;;;2.13;1.50;;;14.40;67.10;;;;;;5262422;26;110732;-49
2024/04/11 03:13:41;;;;;;;2.58;1.50;;;14.40;67.20;;;;;;5261723;26;111129;-50
2024/04/11 03:16:11;;;;;;;4.75;1.67;;;14.30;67.10;;;;;;5261414;26;111175;-50
2024/04/11 03:18:39;;;;;;;3.22;1.55;;;14.40;67.00;;;;;;5262022;26;110521;-49
2024/04/11 03:21:05;;;;;;;2.25;1.70;;;14.40;67.00;;;;;;5261755;26;113942;-50
2024/04/11 03:23:31;;;;;;;3.40;1.40;;;14.40;66.80;;;;;;5261321;26;111491;-50
2024/04/11 03:25:58;;;;;;;3.40;1.40;;;14.40;66.90;;;;;;5261054;26;110448;-50
2024/04/11 03:28:25;;;;;;;2.80;1.60;;;14.40;67.30;;;;;;5262220;26;111233;-52
2024/04/11 03:31:00;;;;;;;5.55;1.63;;;14.40;66.80;;;;;;5262366;26;110504;-52
2024/04/11 03:33:26;;;;;;;4.40;1.80;;;14.30;67.00;;;;;;5261100;26;111097;-52
2024/04/11 03:35:56;;;;;;;3.65;1.50;;;14.30;67.00;;;;;;5261213;26;111633;-52
2024/04/11 03:38:24;;;;;;;3.45;1.45;;;14.30;67.30;;;;;;5262684;26;111212;-52
2024/04/11 03:41:04;;;;;;;3.42;1.60;;;14.30;66.60;;;;;;5262071;26;111035;-52
2024/04/11 03:43:33;;;;;;;3.25;1.50;;;14.30;66.20;;;;;;5261273;26;111051;-52
2024/04/11 03:46:21;;;;;;;3.45;1.60;;;14.20;66.60;;;;;;5260842;26;110814;-52
2024/04/11 03:48:56;;;;;;;2.75;1.65;;;14.30;66.10;;;;;;5262008;26;110393;-52
2024/04/11 03:51:27;;;;;;;3.28;1.48;;;14.30;65.90;;;;;;5262289;26;110699;-52
2024/04/11 03:53:56;;;;;;;3.67;1.75;;;14.20;66.30;;;;;;5260853;26;111205;-52
2024/04/11 03:56:27;;;;;;;5.63;1.70;;;14.20;66.40;;;;;;5261014;26;111555;-52
2024/04/11 03:58:56;;;;;;;6.18;2.05;;;14.20;66.60;;;;;;5262006;26;110448;-52
2024/04/11 04:01:23;;;;;;;7.80;2.38;;;14.10;67.10;;;;;;5262514;26;110616;-52
2024/04/11 04:03:54;;;;;;;2.47;1.75;;;14.10;67.10;;;;;;5261123;26;112246;-52
2024/04/11 04:06:21;;;;;;;7.05;1.80;;;14.00;67.00;;;;;;5260789;26;111142;-52
2024/04/11 04:08:48;;;;;;;4.05;1.60;;;13.90;66.90;;;;;;5262011;26;110415;-52
2024/04/11 04:11:16;;;;;;;7.45;2.05;;;14.00;66.50;;;;;;5261635;26;110650;-52
2024/04/11 04:13:42;;;;;;;4.47;1.85;;;14.00;66.20;;;;;;5260837;26;112343;-52
2024/04/11 04:16:10;;;;;;;10.00;1.90;;;14.00;66.10;;;;;;5260520;26;111783;-52
2024/04/11 04:18:45;;;;;;;4.75;2.00;;;14.00;66.40;;;;;;5261857;26;110766;-52
2024/04/11 04:21:16;;;;;;;5.53;2.03;;;14.00;66.20;;;;;;5262104;26;110431;-52
2024/04/11 04:23:42;;;;;;;3.55;1.80;;;14.00;66.10;;;;;;5260621;26;111446;-51
2024/04/11 04:26:09;;;;;;;2.63;1.70;;;14.00;65.90;;;;;;5260725;26;110847;-53
2024/04/11 04:28:38;;;;;;;3.15;1.67;;;13.90;66.10;;;;;;5259962;26;110548;-52
2024/04/11 04:31:25;;;;;;;6.18;1.70;;;13.90;66.70;;;;;;5258681;26;110684;-52
2024/04/11 04:33:55;;;;;;;4.15;2.33;;;13.90;66.50;;;;;;5260514;26;113151;-52
2024/04/11 04:36:28;;;;;;;8.70;2.90;;;13.90;66.40;;;;;;5258770;26;111510;-52
2024/04/11 04:38:58;;;;;;;8.30;2.30;;;13.90;66.60;;;;;;5259694;26;111313;-52
2024/04/11 04:41:28;;;;;;;4.28;1.60;;;13.80;66.60;;;;;;5261766;26;110600;-52
2024/04/11 04:43:55;;;;;;;4.50;1.90;;;13.80;66.80;;;;;;5260371;26;112243;-52
2024/04/11 04:46:23;;;;;;;5.32;1.73;;;13.80;66.60;;;;;;5260627;26;110312;-52
2024/04/11 04:48:49;;;;;;;6.00;1.90;;;13.90;66.50;;;;;;5261440;26;112312;-52
2024/04/11 04:51:18;;;;;;;6.30;2.15;;;13.90;66.40;;;;;;5261614;26;110744;-52
2024/04/11 04:53:44;;;;;;;2.53;1.80;;;13.80;66.90;;;;;;5260642;26;112346;-52
2024/04/11 04:56:10;;;;;;;3.70;1.80;;;13.80;66.70;;;;;;5260186;26;110984;-52
2024/04/11 04:58:45;;;;;;;6.30;1.88;;;13.90;66.80;;;;;;5261570;26;110830;-51
2024/04/11 05:01:11;;;;;;;5.18;1.90;;;13.90;67.10;;;;;;5261726;26;112432;-52
2024/04/11 05:03:40;;;;;;;4.97;1.80;;;13.90;66.90;;;;;;5260574;26;112281;-52
2024/04/11 05:06:11;;;;;;;6.20;1.88;;;13.90;66.70;;;;;;5259916;26;112608;-52
2024/04/11 05:08:37;;;;;;;3.35;1.90;;;13.90;66.80;;;;;;5261460;26;110486;-52
2024/04/11 05:11:10;;;;;;;3.88;1.77;;;13.90;66.90;;;;;;5261013;26;110504;-52
2024/04/11 05:13:45;;;;;;;3.83;1.83;;;13.90;67.20;;;;;;5260409;26;112603;-52
2024/04/11 05:16:18;;;;;;;5.90;2.00;;;13.90;66.90;;;;;;5259995;26;111002;-52
2024/04/11 05:18:46;;;;;;;6.07;2.50;;;13.90;66.70;;;;;;5261145;26;110895;-52
2024/04/11 05:21:18;;;;;;;6.45;2.00;;;14.00;66.60;;;;;;5259354;26;110635;-52
2024/04/11 05:23:44;;;;;;;2.95;1.85;;;14.10;66.00;;;;;;5259786;26;111132;-52
2024/04/11 05:26:14;;;;;;;3.53;1.90;;;14.10;66.10;;;;;;5259522;26;111452;-52
2024/04/11 05:28:44;;;;;;;4.00;1.60;;;14.20;66.10;;;;;;5260633;26;110993;-52
2024/04/11 05:31:14;;;;;;;3.65;1.85;;;14.20;66.00;;;;;;5260930;26;110871;-52
2024/04/11 05:33:41;;;;;;;4.35;1.70;;;14.30;65.90;;;;;;5259650;26;111572;-52
2024/04/11 05:36:12;;;;;;;5.43;1.88;;;14.30;65.90;;;;;;5259811;26;111439;-52
2024/04/11 05:38:41;;;;;;;5.57;2.00;;;14.40;65.60;;;;;;5260554;26;110450;-52
2024/04/11 05:41:10;;;;;;;8.27;2.00;;;14.30;65.70;;;;;;5260755;26;110487;-52
2024/04/11 05:43:39;;;;;;;4.57;1.90;;;14.50;65.50;;;;;;5261453;26;113370;-51
2024/04/11 05:46:11;;;;;;;6.57;2.05;;;14.60;65.10;;;;;;5262349;26;110511;-52
2024/04/11 05:48:40;;;;;;;8.23;2.10;;;14.60;64.60;;;;;;5263410;26;110649;-52
2024/04/11 05:51:05;;;;;;;8.95;2.05;;;14.70;64.80;;;;;;5263026;26;110670;-52
2024/04/11 05:53:37;;;;;;;4.30;1.90;;;14.70;64.20;;;;;;5262530;26;111146;-52
2024/04/11 05:56:10;;;;;;;7.40;2.20;;;14.80;64.40;;;;;;5262225;26;110772;-51
2024/04/11 05:58:49;;;;;;;11.35;2.63;;;14.90;64.00;;;;;;5263470;26;110906;-52
2024/04/11 06:01:15;;;;;;;7.20;2.33;;;15.00;64.70;;;;;;5261838;26;110896;-52
2024/04/11 06:03:46;;;;;;;7.63;2.15;;;15.10;64.50;;;;;;5262349;26;112578;-52
2024/04/11 06:06:13;;;;;;;11.85;1.92;;;15.20;63.60;;;;;;5261894;26;110772;-52
2024/04/11 06:08:50;;;;;;;5.13;2.00;;;15.10;62.70;;;;;;5263405;26;110879;-52
2024/04/11 06:11:19;;;;;;;9.55;2.30;;;15.30;62.10;;;;;;5262941;26;110794;-52
2024/04/11 06:13:48;;;;;;;5.43;2.22;;;15.40;61.60;;;;;;5261924;26;112537;-52
2024/04/11 06:16:15;;;;;;;3.35;1.88;;;15.50;61.10;;;;;;5278283;26;110745;-52
2024/04/11 06:18:41;;;;;;;8.18;2.10;;;15.60;61.00;;;;;;5264994;26;110749;-52
2024/04/11 06:21:07;;;;;;;5.07;1.80;;;15.80;60.00;;;;;;5266090;26;110746;-52
2024/04/11 06:23:35;;;;;;;5.43;1.52;;;15.90;59.30;;;;;;5271604;26;112706;-49
2024/04/11 06:26:02;;;;;;;6.93;2.35;;;15.90;59.60;;;;;;5269626;26;111830;-50
2024/04/11 06:28:28;;;;;;;6.07;2.05;;;16.10;58.80;;;;;;5278054;26;110791;-50
2024/04/11 06:30:54;;;;;;;4.55;1.98;;;16.20;58.30;;;;;;5262893;26;110941;-50
2024/04/11 06:33:21;;;;;;;5.90;2.25;;;16.30;58.60;;;;;;5259402;26;111026;-50
2024/04/11 06:35:48;;;;;;;8.40;2.15;;;16.40;58.80;;;;;;5262006;26;110537;-50
2024/04/11 06:38:17;;;;;;;6.53;2.10;;;16.60;58.40;;;;;;5263194;26;110628;-50
2024/04/11 06:40:47;;;;;;;6.80;1.75;;;16.70;57.90;;;;;;5262624;26;110752;-50
2024/04/11 06:43:16;;;;;;;9.27;1.95;;;16.80;57.80;;;;;;5271785;26;111052;-50
2024/04/11 06:45:45;;;;;;;6.95;2.00;;;16.80;57.40;;;;;;5269701;26;110645;-50
2024/04/11 06:48:12;;;;;;;7.63;2.15;;;16.90;57.20;;;;;;5262303;26;110471;-50
2024/04/11 06:50:38;;;;;;;6.47;2.03;;;16.90;56.40;;;;;;5283740;26;110501;-50
2024/04/11 06:53:05;;;;;;;6.55;1.85;;;17.10;56.70;;;;;;5261118;26;111103;-50
2024/04/11 06:55:32;;;;;;;7.13;2.00;;;17.20;55.80;;;;;;5267387;26;111705;-49
2024/04/11 06:57:57;;;;;;;2.88;1.58;;;17.30;55.30;;;;;;5271278;26;110527;-50
2024/04/11 07:00:35;;;;;;;9.82;2.25;;;17.40;55.10;;;;;;5269029;26;110464;-50
2024/04/11 07:03:13;;;;;;;4.47;1.70;;;17.40;54.00;;;;;;5255146;26;112567;-50
2024/04/11 07:05:57;;;;;;;6.97;2.00;;;17.50;53.40;;;;;;5269261;26;112966;-50
2024/04/11 07:08:30;;;;;;;5.97;1.83;;;17.60;53.10;;;;;;5251181;26;110668;-50
2024/04/11 07:11:19;;;;;;;4.97;1.90;;;17.70;52.90;;;;;;5273934;26;110426;-50
2024/04/11 07:13:53;;;;;;;8.93;1.90;;;17.80;52.30;;;;;;5252508;26;111240;-50
2024/04/11 07:16:25;;;;;;;2.53;1.48;;;17.90;53.10;;;;;;5261549;26;110810;-50
2024/04/11 07:18:55;;;;;;;3.15;1.63;;;18.00;52.00;;;;;;5239547;26;110673;-50
2024/04/11 07:21:25;;;;;;;8.43;1.75;;;18.10;51.70;;;;;;5260905;26;110688;-50
2024/04/11 07:23:55;;;;;;;9.20;2.00;;;18.30;52.60;;;;;;5261163;26;111203;-50
2024/04/11 07:26:29;;;;;;;6.25;1.73;;;18.40;52.20;;;;;;5260912;26;111897;-50
2024/04/11 07:28:55;;;;;;;6.43;1.83;;;18.50;51.10;;;;;;5261996;26;110921;-50
2024/04/11 07:31:21;;;;;;;10.35;1.80;;;18.60;51.00;;;;;;5261768;26;110753;-51
2024/04/11 07:33:50;;;;;;;4.50;1.70;;;18.80;51.90;;;;;;5281154;26;111049;-50
2024/04/11 07:36:22;;;;;;;8.13;1.65;;;18.80;50.50;;;;;;5260748;26;110559;-51
2024/04/11 07:38:53;;;;;;;4.47;1.63;;;18.90;49.90;;;;;;5264704;26;111073;-51
2024/04/11 07:41:20;;;;;;;8.02;1.95;;;19.00;49.60;;;;;;5261827;26;110823;-50
2024/04/11 07:43:47;;;;;;;4.60;1.50;;;19.00;50.20;;;;;;5260811;26;111021;-50
2024/04/11 07:46:16;;;;;;;6.65;2.10;;;19.10;50.40;;;;;;5260457;26;110514;-50
2024/04/11 07:48:47;;;;;;;5.93;1.95;;;19.30;50.20;;;;;;5283464;26;110722;-51
2024/04/11 07:51:16;;;;;;;6.20;1.80;;;19.40;50.40;;;;;;5239766;26;110465;-51
2024/04/11 07:53:48;;;;;;;6.97;1.95;;;19.50;50.70;;;;;;5260569;26;111270;-50
2024/04/11 07:56:23;;;;;;;6.90;1.83;;;19.60;49.60;;;;;;5237466;26;111599;-50
2024/04/11 07:58:50;;;;;;;5.18;1.48;;;19.60;49.50;;;;;;5263519;26;112145;-50
2024/04/11 08:01:16;;;;;;;5.45;1.80;;;19.70;47.80;;;;;;5271892;21;113019;-52
2024/04/11 08:03:45;;;;;;;2.72;1.70;;;19.80;48.00;;;;;;5226212;26;112230;-51
2024/04/11 08:06:10;;;;;;;3.17;1.70;;;19.90;48.00;;;;;;5226975;26;111734;-52
2024/04/11 08:08:40;;;;;;;3.08;1.77;;;19.90;47.70;;;;;;5234099;26;110907;-51
2024/04/11 08:11:06;;;;;;;6.60;1.50;;;20.10;47.20;;;;;;5234058;26;113604;-51
2024/04/11 08:13:38;;;;;;;9.70;1.80;;;20.10;47.60;;;;;;5233139;26;111149;-51
2024/04/11 08:16:09;;;;;;;4.15;1.98;;;20.20;47.90;;;;;;5238397;26;110852;-51
2024/04/11 08:18:35;;;;;;;6.43;3.60;;;20.40;47.70;;;;;;5228166;26;110471;-51
2024/04/11 08:21:03;;;;;;;7.38;3.03;;;20.50;46.00;;;;;;5228393;26;110753;-51
2024/04/11 08:23:29;;;;;;;7.07;2.97;;;20.60;45.30;;;;;;5242051;26;112434;-50
2024/04/11 08:25:58;;;;;;;7.45;2.35;;;20.40;46.40;;;;;;5232062;26;110890;-51
2024/04/11 08:28:23;;;;;;;5.70;1.90;;;20.60;45.80;;;;;;5255096;26;110990;-51
2024/04/11 08:30:51;;;;;;;5.57;1.63;;;21.00;46.40;;;;;;5239766;26;110896;-52
2024/04/11 08:33:20;;;;;;;4.00;1.55;;;21.10;45.30;;;;;;5257126;26;112420;-51
2024/04/11 08:35:47;;;;;;;5.10;1.77;;;21.20;44.80;;;;;;5235613;26;110866;-51
2024/04/11 08:38:15;;;;;;;5.78;1.90;;;21.10;44.90;;;;;;5241559;26;110406;-51
2024/04/11 08:40:49;;;;;;;6.28;1.73;;;21.30;45.10;;;;;;5231030;26;112214;-51
2024/04/11 08:43:20;;;;;;;2.60;1.30;;;21.60;44.50;;;;;;5244340;26;111062;-51
2024/04/11 08:45:46;;;;;;;10.65;1.70;;;21.40;44.60;;;;;;5237161;26;110927;-52
2024/04/11 08:48:12;;;;;;;4.50;1.73;;;21.40;44.30;;;;;;5209576;26;110819;-52
2024/04/11 08:50:45;;;;;;;8.40;1.70;;;21.70;44.40;;;;;;5245170;26;110937;-52
2024/04/11 08:53:13;;;;;;;6.15;1.83;;;21.90;44.90;;;;;;5258703;26;112570;-52
2024/04/11 08:55:40;;;;;;;4.90;1.92;;;22.20;43.90;;;;;;5228098;26;111456;-52
2024/04/11 08:58:08;;;;;;;5.50;1.95;;;22.30;44.10;;;;;;5225771;26;110407;-52
2024/04/11 09:00:41;;;;;;;4.13;1.67;;;22.60;43.30;;;;;;5227578;26;111148;-51
2024/04/11 09:03:11;;;;;;;4.63;1.95;;;22.60;43.00;;;;;;5226570;26;111355;-52
2024/04/11 09:05:38;;;;;;;5.93;1.88;;;22.30;43.10;;;;;;5190783;27;111641;-52
2024/04/11 09:08:05;;;;;;;4.55;1.33;;;22.50;42.90;;;;;;5234870;26;110578;-51
2024/04/11 09:10:31;;;;;;;6.53;1.60;;;22.30;42.60;;;;;;5233103;26;111261;-52
2024/04/11 09:12:59;;;;;;;3.92;1.50;;;22.50;42.70;;;;;;5229356;26;112421;-52
2024/04/11 09:15:25;;;;;;;13.02;1.50;;;22.80;42.80;;;;;;5234621;26;110922;-52
2024/04/11 09:17:54;;;;;;;2.88;1.70;;;22.50;42.30;;;;;;5226412;26;111088;-51
2024/04/11 09:20:23;;;;;;;7.28;1.70;;;22.60;43.00;;;;;;5227357;26;111817;-51
2024/04/11 09:22:59;;;;;;;5.53;1.63;;;22.70;41.60;;;;;;5226193;26;112155;-51
2024/04/11 09:25:26;;;;;;;44.03;5.18;;;22.90;41.90;;;;;;5225992;26;111552;-51
2024/04/11 09:27:59;;;;;;;5.70;1.73;;;23.20;41.40;;;;;;5200568;27;110942;-51
2024/04/11 09:30:30;;;;;;;3.53;1.53;;;23.60;40.80;;;;;;5229412;26;110560;-51
2024/04/11 09:33:07;;;;;;;3.33;1.80;;;23.60;39.80;;;;;;5225864;26;112334;-53
2024/04/11 09:35:40;;;;;;;5.30;1.58;;;23.60;40.50;;;;;;5228370;26;111986;-51
2024/04/11 09:38:12;;;;;;;5.70;1.60;;;23.30;41.10;;;;;;5229752;26;112160;-51
2024/04/11 09:40:55;;;;;;;5.32;1.33;;;23.40;40.70;;;;;;5229676;26;110899;-52
2024/04/11 09:43:27;;;;;;;3.30;1.58;;;23.80;40.50;;;;;;5225765;26;112485;-51
2024/04/11 09:45:56;;;;;;;4.17;1.70;;;24.10;40.50;;;;;;5224751;26;111360;-51
2024/04/11 09:48:25;;;;;;;3.50;1.60;;;24.60;39.90;;;;;;5229545;26;110691;-52
2024/04/11 09:50:56;;;;;;;3.55;1.55;;;24.50;38.70;;;;;;5229372;26;110804;-51
2024/04/11 09:53:26;;;;;;;5.70;1.70;;;24.10;39.70;;;;;;5225741;26;112006;-52
2024/04/11 09:56:06;;;;;;;2.40;1.55;;;24.10;39.60;;;;;;5228311;26;110469;-51
2024/04/11 09:58:38;;;;;;;3.38;1.38;;;24.60;39.50;;;;;;5229413;26;110570;-51
2024/04/11 10:01:35;;;;;;;;;;;24.80;39.70;;;;;;5256499;26;111189;-51
2024/04/11 10:04:04;;;;;;;4.57;2.00;;;24.60;38.30;;;;;;5196446;26;112495;-52
2024/04/11 10:06:35;;;;;;;3.05;1.80;;;24.50;37.90;;;;;;5228455;26;113628;-52
2024/04/11 10:09:17;;;;;;;3.97;2.05;;;24.90;39.40;;;;;;5227139;26;110620;-52
2024/04/11 10:11:49;;;;;;;4.35;1.80;;;24.60;37.90;;;;;;5226589;26;110468;-51
2024/04/11 10:14:16;;;;;;;3.72;1.90;;;25.00;38.20;;;;;;5225799;26;112451;-51
2024/04/11 10:16:48;;;;;;;3.25;2.20;;;25.40;38.70;;;;;;5226668;26;111156;-51
2024/04/11 10:19:26;;;;;;;5.60;2.00;;;25.90;36.20;;;;;;5226568;26;110862;-51
2024/04/11 10:21:55;;;;;;;3.55;2.00;;;25.90;35.90;;;;;;5226363;26;110573;-51
2024/04/11 10:24:31;;;;;;;3.40;2.30;;;25.80;37.00;;;;;;5224877;26;111439;-52
2024/04/11 10:27:10;;;;;;;3.75;2.20;;;26.20;37.40;;;;;;5224845;26;110442;-51
2024/04/11 10:30:05;;;;;;;4.55;2.22;;;29.60;32.80;;;;;;5226678;26;110453;-51
2024/04/11 10:32:39;;;;;;;5.00;2.30;;;29.20;31.70;;;;;;5212561;26;110877;-51
2024/04/11 10:35:10;;;;;;;3.45;2.50;;;28.40;33.70;;;;;;5229612;26;112472;-51
2024/04/11 10:37:44;;;;;;;5.15;2.60;;;28.10;33.70;;;;;;5230226;26;110857;-51
2024/04/11 10:40:10;;;;;;;5.20;3.00;;;27.70;34.50;;;;;;5223351;26;110565;-51
2024/04/11 10:42:37;;;;;;;6.15;2.88;;;27.80;34.00;;;;;;5207931;26;110849;-52
2024/04/11 10:45:17;;;;;;;5.20;2.78;;;27.20;34.60;;;;;;5230296;26;112259;-52
2024/04/11 10:47:44;;;;;;;4.10;2.80;;;27.50;35.00;;;;;;5209258;26;112031;-52
2024/04/11 10:50:13;;;;;;;5.57;3.92;;;27.80;34.90;;;;;;5233625;26;111124;-52
2024/04/11 10:52:39;;;;;;;4.93;2.80;;;28.10;34.50;;;;;;5228271;26;112372;-51
2024/04/11 10:55:28;;;;;;;5.03;3.15;;;28.50;35.30;;;;;;5228358;26;111106;-51
2024/04/11 10:58:13;;;;;;;7.30;3.30;;;28.70;34.40;;;;;;5207553;26;110522;-52
2024/04/11 11:06:26;;;;;;;3.28;2.97;;;27.40;34.70;;;;;;5127981;27;111045;-52
2024/04/11 11:09:12;;;;;;;3.78;3.00;;;27.60;34.80;;;;;;5126600;27;111724;-52
2024/04/11 11:11:41;;;;;;;6.82;3.30;;;27.60;34.90;;;;;;5127782;27;111167;-51
2024/04/11 11:14:14;;;;;;;3.10;2.80;;;28.10;33.60;;;;;;5129001;27;110610;-51
2024/04/11 11:16:43;;;;;;;7.60;3.30;;;28.40;34.90;;;;;;5106975;27;111279;-52
2024/04/11 11:19:11;;;;;;;10.65;3.40;;;29.00;34.80;;;;;;5124786;27;111610;-52
2024/04/11 11:21:40;;;;;;;7.43;3.50;;;29.40;33.50;;;;;;5125936;27;110732;-52
2024/04/11 11:24:06;;;;;;;6.80;3.33;;;29.60;33.20;;;;;;5126100;27;110635;-54
2024/04/11 11:26:36;;;;;;;10.48;3.65;;;29.70;33.00;;;;;;5122734;27;112573;-52
2024/04/11 11:29:09;;;;;;;10.90;3.60;;;29.80;33.00;;;;;;5102816;27;111783;-52
2024/04/11 11:31:40;;;;;;;6.85;3.05;;;29.60;33.50;;;;;;5126246;27;110949;-52
2024/04/11 11:34:10;;;;;;;11.82;3.40;;;30.00;33.40;;;;;;5126332;27;111187;-52
2024/04/11 11:36:47;;;;;;;8.45;3.70;;;29.70;33.30;;;;;;5124675;27;111081;-52
2024/04/11 11:39:17;;;;;;;18.88;3.80;;;29.80;33.00;;;;;;5146198;26;111735;-53
2024/04/11 11:41:49;;;;;;;9.88;3.30;;;29.90;33.10;;;;;;5228337;26;110585;-53
2024/04/11 11:44:18;;;;;;;;;;;30.00;33.00;;;;;;5229069;26;110769;-52
2024/04/11 11:47:05;;;;;;;4.45;3.10;;;30.00;32.30;;;;;;5227071;26;112501;-52
2024/04/11 11:49:36;;;;;;;7.70;3.28;;;29.90;32.90;;;;;;5227640;26;111915;-51
2024/04/11 11:52:05;;;;;;;11.70;3.20;;;30.10;33.60;;;;;;5228676;26;110587;-51
2024/04/11 11:54:34;;;;;;;5.18;3.60;;;29.80;34.50;;;;;;5226169;26;110769;-50
2024/04/11 11:57:17;;;;;;;8.10;3.75;;;29.80;32.30;;;;;;5227053;26;111146;-51
2024/04/11 11:59:47;;;;;;;6.65;3.47;;;28.50;33.90;;;;;;5208355;26;111521;-51
2024/04/11 12:02:14;;;;;;;5.07;3.10;;;29.40;34.90;;;;;;5231410;26;110885;-51
2024/04/11 12:04:52;;;;;;;6.80;3.40;;;30.10;34.00;;;;;;5230851;26;110980;-51
2024/04/11 12:07:19;;;;;;;55.15;5.40;;;30.40;34.00;;;;;;5229345;26;111084;-51
2024/04/11 12:09:56;;;;;;;14.45;4.30;;;30.10;33.00;;;;;;5226922;26;112456;-51
2024/04/11 12:12:23;;;;;;;4.60;3.40;;;30.20;34.10;;;;;;5232508;26;110820;-50
2024/04/11 12:14:54;;;;;;;5.97;3.25;;;29.40;32.70;;;;;;5229123;26;110693;-51
2024/04/11 12:17:24;;;;;;;8.83;3.40;;;29.50;34.50;;;;;;5226853;26;112925;-51
2024/04/11 12:19:54;;;;;;;7.35;3.55;;;29.70;32.80;;;;;;5226806;26;110559;-51
2024/04/11 12:22:20;;;;;;;4.05;3.45;;;29.70;32.80;;;;;;5228082;26;110474;-51
2024/04/11 12:24:46;;;;;;;4.88;3.85;;;29.10;32.10;;;;;;5228308;26;110636;-50
2024/04/11 12:27:15;;;;;;;5.55;3.53;;;28.80;33.60;;;;;;5226947;26;112623;-50
2024/04/11 12:29:42;;;;;;;5.20;3.47;;;29.50;33.30;;;;;;5226791;26;110633;-50
2024/04/11 12:32:08;;;;;;;6.00;3.35;;;29.30;32.80;;;;;;5246236;26;110469;-50
2024/04/11 12:34:37;;;;;;;6.20;3.60;;;28.90;33.70;;;;;;5255465;26;110886;-51
2024/04/11 12:37:16;;;;;;;8.13;5.40;;;29.30;34.70;;;;;;5252013;26;112527;-51
2024/04/11 12:39:45;;;;;;;5.28;3.88;;;29.90;33.90;;;;;;5222170;26;111902;-50
2024/04/11 12:42:17;;;;;;;7.45;3.40;;;30.60;33.20;;;;;;5233302;26;110661;-50
2024/04/11 12:44:46;;;;;;;5.90;3.42;;;30.40;32.50;;;;;;5243668;26;110589;-50
2024/04/11 12:47:16;;;;;;;7.25;3.33;;;30.40;33.00;;;;;;5234790;26;111191;-51
2024/04/11 12:49:48;;;;;;;3.65;3.20;;;30.20;32.90;;;;;;5246220;26;111172;-51
2024/04/11 12:52:22;;;;;;;4.15;3.17;;;30.00;32.40;;;;;;5248487;26;110467;-50
2024/04/11 12:54:58;;;;;;;4.90;3.40;;;28.40;34.70;;;;;;5227905;26;111423;-51